Time;durP1;ratioP1;P1;durP2;ratioP2;P2;SDS_P1;SDS_P2;PMS_P1;PMS_P2;Temp;Humidity;BMP_temperature;BMP_pressure;BME280_temperature;BME280_humidity;BME280_pressure;Samples;Min_cycle;Max_cycle;Signal;HPM_P1;HPM_P2
2022/11/25 00:01:03;;;;;;;10.27;9.10;;;5.00;99.90;;;;;;6180019;28;20480;-58
2022/11/25 00:04:06;;;;;;;16.10;9.40;;;5.00;99.90;;;;;;6180031;28;20550;-58
2022/11/25 00:07:09;;;;;;;15.03;9.00;;;5.00;99.90;;;;;;6179946;28;20527;-58
2022/11/25 00:10:14;;;;;;;15.53;8.70;;;5.00;99.90;;;;;;6171491;28;20552;-58
2022/11/25 00:13:17;;;;;;;10.30;9.30;;;5.10;99.90;;;;;;6178440;28;20847;-57
2022/11/25 00:16:21;;;;;;;10.50;8.20;;;5.00;99.90;;;;;;6179946;28;20477;-58
2022/11/25 00:19:25;;;;;;;7.87;7.03;;;5.00;99.90;;;;;;6180011;28;20524;-58
2022/11/25 00:22:28;;;;;;;8.20;6.30;;;5.00;99.90;;;;;;6179367;28;20473;-59
2022/11/25 00:25:32;;;;;;;10.57;7.53;;;4.90;99.90;;;;;;6179406;28;20816;-58
2022/11/25 00:28:36;;;;;;;7.70;6.90;;;4.90;99.90;;;;;;6179898;28;20470;-58
2022/11/25 00:31:40;;;;;;;7.67;6.73;;;4.90;99.90;;;;;;6179642;28;20540;-60
2022/11/25 00:34:43;;;;;;;8.30;6.70;;;4.90;99.90;;;;;;6178266;28;20802;-59
2022/11/25 00:37:47;;;;;;;8.80;6.53;;;4.90;99.90;;;;;;6178757;28;21059;-60
2022/11/25 00:44:34;;;;;;;7.60;5.80;;;4.80;99.90;;;;;;6179260;28;20503;-60
2022/11/25 00:44:36;;;;;;;5.93;5.40;;;4.90;99.90;;;;;;6178241;28;20481;-60
2022/11/25 00:47:41;;;;;;;9.40;6.17;;;4.80;99.90;;;;;;6177698;28;20481;-59
2022/11/25 00:50:44;;;;;;;6.47;5.87;;;4.80;99.90;;;;;;6178568;28;20481;-59
2022/11/25 00:53:47;;;;;;;12.13;6.93;;;4.80;99.90;;;;;;6178232;28;21121;-62
2022/11/25 00:56:52;;;;;;;13.77;7.07;;;4.80;99.90;;;;;;6182113;28;20489;-63
2022/11/25 00:59:55;;;;;;;6.70;5.17;;;4.80;99.90;;;;;;6175804;28;20478;-59
2022/11/25 01:02:58;;;;;;;7.30;6.47;;;4.80;99.90;;;;;;6177418;28;20482;-59
2022/11/25 01:06:02;;;;;;;7.43;5.57;;;4.70;99.90;;;;;;6176275;28;20536;-59
2022/11/25 01:09:06;;;;;;;6.40;5.67;;;4.70;99.90;;;;;;6177364;28;20965;-60
2022/11/25 01:12:11;;;;;;;5.87;5.27;;;4.70;99.90;;;;;;6176918;28;20481;-60
2022/11/25 01:15:14;;;;;;;7.07;5.73;;;4.60;99.90;;;;;;6171594;28;20515;-63
2022/11/25 01:18:17;;;;;;;8.73;5.50;;;4.70;99.90;;;;;;6177655;28;20473;-63
2022/11/25 01:21:22;;;;;;;8.37;6.10;;;4.60;99.90;;;;;;6178053;28;20485;-63
2022/11/25 01:24:26;;;;;;;4.97;4.50;;;4.50;99.90;;;;;;6179992;28;20489;-60
2022/11/25 01:27:30;;;;;;;5.80;5.23;;;4.50;99.90;;;;;;6178191;28;20478;-60
2022/11/25 01:30:33;;;;;;;5.67;4.20;;;4.50;99.90;;;;;;6178035;28;20462;-59
2022/11/25 01:33:44;;;;;;;5.00;3.90;;;4.40;99.90;;;;;;6179073;28;20427;-59
2022/11/25 01:36:47;;;;;;;4.53;3.90;;;4.20;99.90;;;;;;6178230;28;20457;-63
2022/11/25 01:39:51;;;;;;;5.77;4.10;;;4.30;99.90;;;;;;6178244;28;21202;-63
2022/11/25 01:42:55;;;;;;;7.63;4.43;;;4.30;99.90;;;;;;6178706;28;20843;-64
2022/11/25 01:46:05;;;;;;;4.67;4.27;;;4.30;99.90;;;;;;6179436;28;20458;-64
2022/11/25 01:49:15;;;;;;;4.40;3.73;;;4.20;99.90;;;;;;6178733;28;20520;-63
2022/11/25 01:52:22;;;;;;;5.17;4.10;;;4.20;99.90;;;;;;6179055;28;20537;-60
2022/11/25 01:55:29;;;;;;;4.53;4.10;;;4.20;99.90;;;;;;6177641;28;20544;-59
2022/11/25 01:58:37;;;;;;;5.40;3.73;;;4.20;99.90;;;;;;6178124;28;20522;-63
2022/11/25 02:01:40;;;;;;;5.67;3.80;;;4.20;99.90;;;;;;6177837;28;20783;-63
2022/11/25 02:04:46;;;;;;;4.00;3.60;;;4.10;99.90;;;;;;6177834;28;20799;-63
2022/11/25 02:07:51;;;;;;;7.63;5.10;;;4.20;99.90;;;;;;6177628;28;20488;-63
2022/11/25 02:10:55;;;;;;;4.90;3.93;;;4.10;99.90;;;;;;6177578;28;20556;-63
2022/11/25 02:14:00;;;;;;;5.70;4.73;;;4.10;99.90;;;;;;6177769;28;20478;-61
2022/11/25 02:17:03;;;;;;;5.43;4.20;;;3.90;99.90;;;;;;6173768;28;20485;-63
2022/11/25 02:20:08;;;;;;;8.90;8.00;;;3.90;99.90;;;;;;6177584;28;20493;-60
2022/11/25 02:23:21;;;;;;;4.00;3.70;;;3.90;99.90;;;;;;6178109;28;20489;-60
2022/11/25 02:26:25;;;;;;;6.37;4.57;;;3.90;99.90;;;;;;6178518;28;20793;-60
2022/11/25 02:29:28;;;;;;;5.97;4.17;;;3.80;99.90;;;;;;6179216;28;20972;-58
2022/11/25 02:32:32;;;;;;;3.07;2.77;;;3.80;99.90;;;;;;6178046;28;21035;-63
2022/11/25 02:35:36;;;;;;;4.80;3.93;;;3.90;99.90;;;;;;6176341;28;20953;-63
2022/11/25 02:38:45;;;;;;;6.20;4.20;;;3.90;99.90;;;;;;6178935;28;20474;-63
2022/11/25 02:41:55;;;;;;;7.57;4.77;;;3.80;99.90;;;;;;6186622;28;20482;-63
2022/11/25 02:44:58;;;;;;;5.80;4.63;;;3.80;99.90;;;;;;6177256;28;20470;-63
2022/11/25 02:48:01;;;;;;;3.57;3.27;;;3.70;99.90;;;;;;6177005;28;20544;-63
2022/11/25 02:51:05;;;;;;;3.80;3.37;;;3.70;99.90;;;;;;6176852;28;20478;-63
2022/11/25 02:54:09;;;;;;;5.10;4.60;;;3.70;99.90;;;;;;6177169;28;20501;-63
2022/11/25 02:57:13;;;;;;;5.27;4.77;;;3.80;99.90;;;;;;6177125;28;20544;-63
2022/11/25 03:00:18;;;;;;;3.40;3.00;;;3.70;99.90;;;;;;6177114;28;20486;-63
2022/11/25 03:03:21;;;;;;;3.93;2.90;;;3.70;99.90;;;;;;6176767;28;20478;-63
2022/11/25 03:06:24;;;;;;;3.47;3.17;;;3.70;99.90;;;;;;6176374;28;20554;-63
2022/11/25 03:09:27;;;;;;;3.70;3.40;;;3.80;99.90;;;;;;6176540;28;20486;-63
2022/11/25 03:12:32;;;;;;;5.13;3.00;;;3.70;99.90;;;;;;6176954;28;20548;-63
2022/11/25 03:15:35;;;;;;;3.53;3.00;;;3.70;99.90;;;;;;6177478;28;20454;-63
2022/11/25 03:18:39;;;;;;;2.80;2.60;;;3.70;99.90;;;;;;6176815;28;20817;-63
2022/11/25 03:21:42;;;;;;;2.00;1.90;;;3.70;99.90;;;;;;6177175;28;20492;-60
2022/11/25 03:24:45;;;;;;;3.03;2.80;;;3.70;99.90;;;;;;6176575;28;20446;-59
2022/11/25 03:27:49;;;;;;;3.13;2.10;;;3.70;99.90;;;;;;6177259;28;20442;-60
2022/11/25 03:30:52;;;;;;;3.47;2.30;;;3.70;99.90;;;;;;6176707;28;20469;-59
2022/11/25 03:33:56;;;;;;;3.07;2.77;;;3.80;99.90;;;;;;6176696;28;20461;-59
2022/11/25 03:36:59;;;;;;;2.77;2.57;;;3.70;99.90;;;;;;6176997;28;20461;-61
2022/11/25 03:40:02;;;;;;;5.10;4.60;;;3.70;99.90;;;;;;6176385;28;20564;-63
2022/11/25 03:43:07;;;;;;;4.07;3.63;;;3.80;99.90;;;;;;6176442;28;20486;-63
2022/11/25 03:46:10;;;;;;;3.20;2.90;;;3.70;99.90;;;;;;6177388;28;20481;-63
2022/11/25 03:49:13;;;;;;;2.33;2.13;;;3.70;99.90;;;;;;6181191;28;20532;-62
2022/11/25 03:52:16;;;;;;;1.97;1.87;;;3.70;99.90;;;;;;6180867;28;20481;-63
2022/11/25 03:55:19;;;;;;;2.10;2.00;;;3.60;99.90;;;;;;6181039;28;20532;-63
2022/11/25 03:58:24;;;;;;;2.13;1.90;;;3.60;99.90;;;;;;6180829;28;20962;-63
2022/11/25 04:01:27;;;;;;;2.67;2.47;;;3.60;99.90;;;;;;6180556;28;20478;-62
2022/11/25 04:04:31;;;;;;;3.70;2.00;;;3.60;99.90;;;;;;6179969;28;20470;-62
2022/11/25 04:07:34;;;;;;;4.87;2.10;;;3.60;99.90;;;;;;6179624;28;20560;-63
2022/11/25 04:10:37;;;;;;;3.80;2.53;;;3.60;99.90;;;;;;6180067;28;20966;-63
2022/11/25 04:13:40;;;;;;;4.77;2.47;;;3.60;99.90;;;;;;6180117;28;20850;-63
2022/11/25 04:16:43;;;;;;;3.17;2.33;;;3.60;99.90;;;;;;6180142;28;20474;-63
2022/11/25 04:19:47;;;;;;;3.27;1.83;;;3.60;99.90;;;;;;6179630;28;20588;-62
2022/11/25 04:22:50;;;;;;;2.50;2.30;;;3.50;99.90;;;;;;6179790;28;20497;-63
2022/11/25 04:25:53;;;;;;;2.60;2.40;;;3.50;99.90;;;;;;6177130;28;20509;-63
2022/11/25 04:28:58;;;;;;;2.37;2.17;;;3.40;99.90;;;;;;6191442;28;20490;-62
2022/11/25 04:32:01;;;;;;;3.10;2.27;;;3.40;99.90;;;;;;6180002;28;20544;-63
2022/11/25 04:35:04;;;;;;;3.30;2.80;;;3.40;99.90;;;;;;6179494;28;20844;-62
2022/11/25 04:38:08;;;;;;;2.57;1.90;;;3.40;99.90;;;;;;6179466;28;20481;-62
2022/11/25 04:41:11;;;;;;;2.60;2.20;;;3.40;99.90;;;;;;6180913;28;20533;-62
2022/11/25 04:44:15;;;;;;;2.53;2.33;;;3.40;99.90;;;;;;6180168;28;20954;-62
2022/11/25 04:47:18;;;;;;;3.27;3.03;;;3.50;99.90;;;;;;6179480;28;20629;-63
2022/11/25 04:50:23;;;;;;;3.10;2.10;;;3.40;99.90;;;;;;6179370;28;20529;-63
2022/11/25 04:53:26;;;;;;;3.60;2.30;;;3.50;99.90;;;;;;6179263;28;20609;-63
2022/11/25 04:56:29;;;;;;;2.67;2.47;;;3.40;99.90;;;;;;6178686;28;20788;-63
2022/11/25 04:59:40;;;;;;;2.87;1.90;;;3.40;99.90;;;;;;6178016;28;20490;-62
2022/11/25 05:02:43;;;;;;;2.63;2.17;;;3.40;99.90;;;;;;6178572;28;20473;-62
2022/11/25 05:05:46;;;;;;;6.40;2.73;;;3.40;99.90;;;;;;6178830;28;20524;-62
2022/11/25 05:08:50;;;;;;;3.23;2.37;;;3.40;99.90;;;;;;6178402;28;21847;-63
2022/11/25 05:11:53;;;;;;;3.70;3.40;;;3.40;99.90;;;;;;6178919;28;20496;-64
2022/11/25 05:14:58;;;;;;;3.20;2.50;;;3.40;99.90;;;;;;6178645;28;20478;-64
2022/11/25 05:18:01;;;;;;;2.50;2.30;;;3.30;99.90;;;;;;6178339;28;20490;-61
2022/11/25 05:21:06;;;;;;;4.70;3.10;;;3.30;99.90;;;;;;6178453;28;20497;-62
2022/11/25 05:24:09;;;;;;;3.53;2.43;;;3.20;99.90;;;;;;6178569;28;20534;-63
2022/11/25 05:27:13;;;;;;;4.73;2.90;;;3.10;99.90;;;;;;6178040;28;20540;-63
2022/11/25 05:30:18;;;;;;;3.93;3.50;;;3.00;99.90;;;;;;6173788;28;20477;-62
2022/11/25 05:33:21;;;;;;;4.13;2.80;;;3.00;99.90;;;;;;6179963;28;20493;-62
2022/11/25 05:36:24;;;;;;;2.97;2.73;;;3.10;99.90;;;;;;6178870;28;20477;-63
2022/11/25 05:39:28;;;;;;;3.63;3.00;;;3.10;99.90;;;;;;6178370;28;20501;-64
2022/11/25 05:42:31;;;;;;;12.73;7.27;;;3.10;99.90;;;;;;6178119;28;20477;-63
2022/11/25 05:45:38;;;;;;;14.60;8.87;;;2.90;99.90;;;;;;6177980;28;20454;-63
2022/11/25 05:48:41;;;;;;;12.60;8.77;;;2.80;99.90;;;;;;6177939;28;20434;-63
2022/11/25 05:51:44;;;;;;;11.60;9.30;;;2.80;99.90;;;;;;6177623;28;20457;-63
2022/11/25 05:54:48;;;;;;;9.53;8.30;;;2.80;99.90;;;;;;6177724;28;20453;-64
2022/11/25 05:57:57;;;;;;;12.07;8.93;;;2.70;99.90;;;;;;6177745;28;20465;-63
2022/11/25 06:01:07;;;;;;;12.07;9.00;;;2.70;99.90;;;;;;6177358;28;20493;-63
2022/11/25 06:04:10;;;;;;;13.63;9.50;;;2.80;99.90;;;;;;6177474;28;20477;-63
2022/11/25 06:07:13;;;;;;;13.20;10.60;;;2.90;99.90;;;;;;6177701;28;20474;-63
2022/11/25 06:10:17;;;;;;;16.80;11.23;;;2.90;99.90;;;;;;6177419;28;20515;-63
2022/11/25 06:13:20;;;;;;;14.30;10.87;;;2.90;99.90;;;;;;6177678;28;20478;-63
2022/11/25 06:16:25;;;;;;;13.53;10.10;;;3.00;99.90;;;;;;6185312;28;20969;-63
2022/11/25 06:19:28;;;;;;;14.60;11.03;;;3.00;99.90;;;;;;6180106;28;20605;-63
2022/11/25 06:22:31;;;;;;;14.17;9.63;;;3.00;99.90;;;;;;6178253;28;20486;-63
2022/11/25 06:25:35;;;;;;;11.60;9.63;;;3.00;99.90;;;;;;6177852;28;20470;-63
2022/11/25 06:28:38;;;;;;;12.70;9.30;;;2.80;99.90;;;;;;6177683;28;20478;-62
2022/11/25 06:31:43;;;;;;;12.27;9.13;;;2.70;99.90;;;;;;6177670;28;20965;-64
2022/11/25 06:34:46;;;;;;;10.30;9.27;;;2.80;99.90;;;;;;6176790;28;20474;-64
2022/11/25 06:37:49;;;;;;;10.23;9.17;;;2.90;99.90;;;;;;6177649;28;20473;-64
2022/11/25 06:40:52;;;;;;;16.30;10.27;;;2.90;99.90;;;;;;6177767;28;20801;-64
2022/11/25 06:44:01;;;;;;;11.50;9.70;;;2.90;99.90;;;;;;6177568;28;20496;-63
2022/11/25 06:47:05;;;;;;;11.93;10.70;;;2.90;99.90;;;;;;6177236;28;20484;-64
2022/11/25 06:50:08;;;;;;;11.67;9.03;;;2.90;99.90;;;;;;6177718;28;20544;-63
2022/11/25 06:53:12;;;;;;;11.90;9.50;;;3.00;99.90;;;;;;6180633;28;20482;-64
2022/11/25 06:56:16;;;;;;;20.67;9.50;;;3.10;99.90;;;;;;6181768;28;20478;-64
2022/11/25 06:59:20;;;;;;;9.37;7.90;;;3.20;99.90;;;;;;6179178;28;20565;-63
2022/11/25 07:02:25;;;;;;;10.30;7.37;;;3.30;99.90;;;;;;6177858;28;20481;-64
2022/11/25 07:05:28;;;;;;;8.30;7.10;;;3.40;99.90;;;;;;6178734;28;20808;-68
2022/11/25 07:08:32;;;;;;;8.70;6.70;;;3.40;99.90;;;;;;6178796;28;20477;-62
2022/11/25 07:11:39;;;;;;;5.20;4.70;;;3.40;99.90;;;;;;6176635;28;20780;-63
2022/11/25 07:14:42;;;;;;;8.97;5.60;;;3.40;99.90;;;;;;6176186;28;20474;-63
2022/11/25 07:17:47;;;;;;;5.87;5.40;;;3.30;99.90;;;;;;6176612;28;20485;-64
2022/11/25 07:20:50;;;;;;;6.17;5.57;;;3.50;99.90;;;;;;6176717;28;20949;-63
2022/11/25 07:23:53;;;;;;;9.93;5.40;;;3.60;99.90;;;;;;6181151;28;20470;-63
2022/11/25 07:26:56;;;;;;;6.70;5.83;;;3.50;99.90;;;;;;6181285;28;20462;-62
2022/11/25 07:30:00;;;;;;;6.70;5.67;;;3.70;99.90;;;;;;6178644;28;20480;-62
2022/11/25 07:33:24;;;;;;;7.43;4.70;;;3.80;99.90;;;;;;6180690;28;20470;-62
2022/11/25 07:36:28;;;;;;;5.30;4.17;;;4.00;99.90;;;;;;6180704;28;20557;-61
2022/11/25 07:39:31;;;;;;;7.53;6.67;;;4.10;99.90;;;;;;6171761;28;20485;-59
2022/11/25 07:42:35;;;;;;;6.97;6.27;;;4.20;99.90;;;;;;6180222;28;20473;-59
2022/11/25 07:45:38;;;;;;;7.57;6.20;;;4.40;99.90;;;;;;6180530;28;20452;-62
2022/11/25 07:48:44;;;;;;;9.33;7.23;;;4.50;99.90;;;;;;6180753;28;20461;-61
2022/11/25 07:51:50;;;;;;;9.20;7.90;;;4.70;99.90;;;;;;6180686;28;20438;-61
2022/11/25 07:54:53;;;;;;;10.33;7.50;;;4.90;99.90;;;;;;6180267;28;20519;-62
2022/11/25 07:57:56;;;;;;;12.53;7.30;;;5.20;99.90;;;;;;6180652;28;20531;-62
2022/11/25 08:01:02;;;;;;;8.37;5.53;;;5.30;99.90;;;;;;6180282;28;20562;-62
2022/11/25 08:04:07;;;;;;;7.97;5.50;;;5.50;99.90;;;;;;6179859;28;20804;-62
2022/11/25 08:07:11;;;;;;;11.53;7.00;;;5.60;99.90;;;;;;6180175;28;20478;-57
2022/11/25 08:10:14;;;;;;;10.00;6.80;;;5.80;99.90;;;;;;6181581;28;20628;-61
2022/11/25 08:13:17;;;;;;;8.63;6.63;;;6.00;99.90;;;;;;6177659;28;20962;-62
2022/11/25 08:16:26;;;;;;;7.27;5.83;;;6.30;99.90;;;;;;6178541;28;20513;-62
2022/11/25 08:19:31;;;;;;;9.53;5.87;;;6.50;99.90;;;;;;6178616;28;20566;-62
2022/11/25 08:22:34;;;;;;;5.83;4.87;;;6.70;99.90;;;;;;6174980;28;20471;-62
2022/11/25 08:25:40;;;;;;;11.27;6.77;;;6.90;99.90;;;;;;6154174;28;20483;-62
2022/11/25 08:28:48;;;;;;;8.87;6.23;;;7.10;99.90;;;;;;6162280;28;20478;-61
2022/11/25 08:31:51;;;;;;;6.70;5.80;;;7.30;99.90;;;;;;6177691;28;20596;-62
2022/11/25 08:34:55;;;;;;;9.10;5.50;;;7.40;99.90;;;;;;6176291;28;20481;-62
2022/11/25 08:37:59;;;;;;;12.63;6.40;;;7.50;99.90;;;;;;6177389;28;20529;-60
2022/11/25 08:41:02;;;;;;;13.93;7.87;;;7.70;99.90;;;;;;6173131;28;20493;-61
2022/11/25 08:44:08;;;;;;;9.50;7.87;;;7.80;99.90;;;;;;6175194;28;20493;-61
2022/11/25 08:47:11;;;;;;;12.87;9.07;;;7.90;99.90;;;;;;6177017;28;20970;-61
2022/11/25 08:50:16;;;;;;;15.60;9.47;;;8.00;99.90;;;;;;6177057;28;20942;-62
2022/11/25 08:53:20;;;;;;;8.30;7.37;;;8.00;99.90;;;;;;6176853;28;20508;-62
2022/11/25 08:56:24;;;;;;;12.53;7.00;;;8.00;99.90;;;;;;6177169;28;20516;-61
2022/11/25 08:59:28;;;;;;;12.53;7.90;;;7.90;99.90;;;;;;6176465;28;20541;-61
2022/11/25 09:02:31;;;;;;;13.43;9.00;;;7.90;99.90;;;;;;6176558;28;20492;-60
2022/11/25 09:05:40;;;;;;;15.33;8.40;;;8.00;99.90;;;;;;6176495;28;20474;-60
2022/11/25 09:08:44;;;;;;;9.73;7.97;;;7.90;99.90;;;;;;6175956;28;20470;-62
2022/11/25 09:11:47;;;;;;;13.70;7.80;;;7.90;99.90;;;;;;6176444;28;20473;-63
2022/11/25 09:14:50;;;;;;;11.83;7.23;;;7.80;99.90;;;;;;6177337;28;20536;-62
2022/11/25 09:17:59;;;;;;;8.20;7.40;;;7.70;99.90;;;;;;6177175;28;20485;-62
2022/11/25 09:21:08;;;;;;;13.57;7.07;;;7.70;99.90;;;;;;6177042;28;20478;-62
2022/11/25 09:24:11;;;;;;;11.17;8.10;;;7.70;99.90;;;;;;6176179;28;20470;-62
2022/11/25 09:27:15;;;;;;;6.10;5.50;;;7.70;99.90;;;;;;6176729;28;20474;-62
2022/11/25 09:30:18;;;;;;;6.23;4.40;;;7.70;99.90;;;;;;6176995;28;20851;-62
2022/11/25 09:33:21;;;;;;;6.60;4.67;;;7.60;99.90;;;;;;6176970;28;20484;-61
2022/11/25 09:36:26;;;;;;;4.93;4.30;;;7.60;99.90;;;;;;6206340;28;20960;-61
2022/11/25 09:39:29;;;;;;;8.10;4.60;;;7.60;99.90;;;;;;6200382;28;20829;-61
2022/11/25 09:49:55;;;;;;;6.33;5.17;;;7.70;99.90;;;;;;6175476;28;20989;-61
2022/11/25 09:53:08;;;;;;;9.37;6.07;;;7.80;99.90;;;;;;6186712;28;20469;-61
2022/11/25 09:56:20;;;;;;;11.13;8.00;;;7.80;99.90;;;;;;6204059;28;20473;-61
2022/11/25 09:59:30;;;;;;;10.60;6.17;;;8.00;99.90;;;;;;6201182;28;20488;-61
2022/11/25 10:02:39;;;;;;;8.37;6.90;;;8.00;99.90;;;;;;6199953;28;21118;-61
2022/11/25 10:05:47;;;;;;;7.87;6.50;;;8.10;99.90;;;;;;6201563;28;20477;-61
2022/11/25 10:08:55;;;;;;;8.33;6.73;;;8.30;99.90;;;;;;6200469;28;20493;-61
2022/11/25 10:12:03;;;;;;;13.80;7.40;;;8.40;99.90;;;;;;6199460;28;20480;-61
2022/11/25 10:15:13;;;;;;;6.87;6.20;;;8.50;99.90;;;;;;6199257;28;20485;-61
2022/11/25 10:18:22;;;;;;;8.23;6.20;;;8.80;99.90;;;;;;6199853;28;20473;-61
2022/11/25 10:21:26;;;;;;;6.90;5.50;;;8.90;99.90;;;;;;6200018;28;20488;-61
2022/11/25 10:24:31;;;;;;;6.80;5.17;;;9.10;99.90;;;;;;6200423;28;20469;-62
2022/11/25 10:27:45;;;;;;;7.53;6.73;;;9.30;99.90;;;;;;6200188;28;20455;-61
2022/11/25 10:30:52;;;;;;;7.63;5.40;;;9.40;99.90;;;;;;6200173;28;20821;-60
2022/11/25 10:33:58;;;;;;;6.43;5.53;;;9.50;99.90;;;;;;6200080;28;20469;-62
2022/11/25 10:37:05;;;;;;;9.43;5.60;;;9.60;99.90;;;;;;6200990;28;20469;-61
2022/11/25 10:40:15;;;;;;;8.93;6.83;;;9.60;99.90;;;;;;6200746;28;20791;-60
2022/11/25 10:43:18;;;;;;;9.53;5.93;;;10.20;99.50;;;;;;6200769;28;20612;-62
2022/11/25 10:46:32;;;;;;;15.27;7.83;;;11.10;98.20;;;;;;6200386;28;20815;-62
2022/11/25 10:50:08;;;;;;;6.80;5.37;;;11.60;97.00;;;;;;6195988;28;20571;-62
2022/11/25 10:53:14;;;;;;;13.20;7.00;;;11.70;96.40;;;;;;6199824;28;20477;-61
2022/11/25 10:56:19;;;;;;;11.30;8.50;;;11.70;95.70;;;;;;6198773;28;20475;-62
2022/11/25 10:59:28;;;;;;;9.03;6.77;;;12.70;96.70;;;;;;6198561;28;20552;-63
2022/11/25 11:02:39;;;;;;;11.13;6.87;;;17.20;92.10;;;;;;6198677;28;20481;-62
2022/11/25 11:05:47;;;;;;;10.03;7.10;;;21.70;61.60;;;;;;6198495;28;20797;-62
2022/11/25 11:08:51;;;;;;;12.73;7.40;;;25.00;47.80;;;;;;6198706;28;20588;-62
2022/11/25 11:11:55;;;;;;;10.23;7.80;;;28.00;38.90;;;;;;6198499;28;20243;-62
2022/11/25 11:15:23;;;;;;;9.07;8.13;;;30.20;32.90;;;;;;6198702;28;20653;-63
2022/11/25 11:18:30;;;;;;;8.70;7.67;;;32.50;28.40;;;;;;6199673;28;20237;-62
2022/11/25 11:21:35;;;;;;;7.47;6.70;;;33.10;26.30;;;;;;6201342;28;20247;-65
2022/11/25 11:24:40;;;;;;;8.15;6.68;;;34.50;24.80;;;;;;6201123;28;20641;-62
2022/11/25 11:27:45;;;;;;;6.47;5.72;;;34.40;23.20;;;;;;6200687;28;20597;-62
2022/11/25 11:30:56;;;;;;;7.35;6.30;;;35.40;22.50;;;;;;6200750;28;20236;-64
2022/11/25 11:34:14;;;;;;;6.65;6.07;;;36.10;21.50;;;;;;6200344;28;20602;-63
2022/11/25 11:37:36;;;;;;;8.70;6.03;;;35.20;21.50;;;;;;6200574;28;20236;-62
2022/11/25 11:40:43;;;;;;;6.45;5.07;;;34.70;21.70;;;;;;6174888;28;20242;-62
2022/11/25 11:44:01;;;;;;;5.20;4.80;;;35.60;21.90;;;;;;6174782;28;20250;-63
2022/11/25 11:47:17;;;;;;;4.90;4.50;;;36.60;20.70;;;;;;6176093;28;20236;-62
2022/11/25 11:50:27;;;;;;;4.28;3.97;;;36.90;19.90;;;;;;6174184;28;20244;-61
2022/11/25 11:53:36;;;;;;;4.70;4.25;;;36.00;20.20;;;;;;6169598;28;20230;-62
2022/11/25 11:56:44;;;;;;;4.72;3.95;;;36.90;19.50;;;;;;6174612;28;20253;-62
2022/11/25 11:59:52;;;;;;;5.00;4.43;;;36.10;19.40;;;;;;6174232;28;20237;-62
2022/11/25 12:03:03;;;;;;;8.00;3.88;;;34.80;20.70;;;;;;6179728;28;20885;-62
2022/11/25 12:06:10;;;;;;;2.88;2.65;;;34.90;20.50;;;;;;6198073;28;20232;-62
2022/11/25 12:09:19;;;;;;;4.78;3.38;;;33.10;20.80;;;;;;6201601;28;20263;-62
2022/11/25 12:12:32;;;;;;;5.30;3.05;;;33.80;21.10;;;;;;6199224;28;20327;-63
2022/11/25 12:15:44;;;;;;;6.15;3.72;;;35.40;19.90;;;;;;6200831;28;20502;-63
2022/11/25 12:18:52;;;;;;;6.20;3.80;;;36.00;19.90;;;;;;6178767;28;20248;-64
2022/11/25 12:22:00;;;;;;;9.77;6.03;;;35.80;19.50;;;;;;6177699;28;20212;-63
2022/11/25 12:25:10;;;;;;;9.35;3.63;;;36.50;19.50;;;;;;6177782;28;20684;-64
2022/11/25 12:28:18;;;;;;;4.93;3.35;;;36.00;19.00;;;;;;6177640;28;20223;-64
2022/11/25 12:31:28;;;;;;;3.67;3.13;;;36.30;19.00;;;;;;6178300;28;20240;-63
2022/11/25 12:34:39;;;;;;;6.18;3.60;;;36.60;18.50;;;;;;6154189;28;20233;-64
2022/11/25 12:37:47;;;;;;;3.70;2.80;;;36.20;18.50;;;;;;6169802;28;20246;-64
2022/11/25 12:40:59;;;;;;;4.38;3.33;;;36.90;18.50;;;;;;6176769;28;20241;-63
2022/11/25 12:44:09;;;;;;;4.32;3.00;;;37.10;18.00;;;;;;6177606;28;20237;-61
2022/11/25 12:47:14;;;;;;;3.35;2.95;;;36.20;18.60;;;;;;6177862;28;20598;-64
2022/11/25 12:50:23;;;;;;;3.78;2.75;;;37.10;18.10;;;;;;6176204;28;20699;-63
2022/11/25 12:53:39;;;;;;;3.45;2.40;;;37.30;17.60;;;;;;6177418;28;20238;-63
2022/11/25 12:57:00;;;;;;;4.30;2.30;;;36.50;17.50;;;;;;6194737;28;20225;-63
2022/11/25 13:00:13;;;;;;;4.20;2.45;;;35.30;18.20;;;;;;6179424;28;20235;-63
2022/11/25 13:04:03;;;;;;;3.05;1.98;;;35.60;18.20;;;;;;6176473;28;20226;-63
2022/11/25 13:07:26;;;;;;;4.78;2.30;;;35.70;18.00;;;;;;6179773;28;20246;-64
2022/11/25 13:11:04;;;;;;;2.50;1.75;;;36.30;17.80;;;;;;6175989;28;20297;-63
2022/11/25 13:14:19;;;;;;;5.78;2.10;;;36.90;17.60;;;;;;6174527;28;20321;-63
2022/11/25 13:17:23;;;;;;;5.80;2.95;;;37.00;17.40;;;;;;6175858;28;20241;-63
2022/11/25 13:20:50;;;;;;;3.20;2.90;;;37.00;17.30;;;;;;6174916;28;20237;-62
2022/11/25 13:23:56;;;;;;;6.85;2.60;;;37.00;17.40;;;;;;6162693;28;20590;-62
2022/11/25 13:27:00;;;;;;;4.93;2.80;;;36.90;17.50;;;;;;6176399;28;20240;-63
2022/11/25 13:30:24;;;;;;;4.63;2.70;;;36.60;17.30;;;;;;6175268;28;20246;-63
2022/11/25 13:33:59;;;;;;;7.60;2.25;;;34.80;18.00;;;;;;6175867;28;20236;-63
2022/11/25 13:37:22;;;;;;;3.97;3.40;;;32.20;20.00;;;;;;6174449;28;20259;-63
2022/11/25 13:40:38;;;;;;;6.77;6.13;;;30.60;21.50;;;;;;6175668;28;20245;-63
2022/11/25 13:43:55;;;;;;;16.50;12.97;;;29.10;22.70;;;;;;6176287;28;20230;-63
2022/11/25 13:47:29;;;;;;;10.97;9.67;;;27.40;23.90;;;;;;6177290;28;20234;-62
2022/11/25 13:50:33;;;;;;;6.30;5.70;;;24.80;26.30;;;;;;6172127;28;20581;-63
2022/11/25 13:54:00;;;;;;;6.20;4.40;;;22.70;28.30;;;;;;6174928;28;20739;-62
2022/11/25 13:57:29;;;;;;;3.37;3.07;;;20.80;30.30;;;;;;6176330;28;20241;-63
2022/11/25 14:00:48;;;;;;;5.37;4.83;;;20.00;32.20;;;;;;6166378;28;20673;-63
2022/11/25 14:03:59;;;;;;;5.50;2.20;;;19.60;33.50;;;;;;6175269;28;20222;-63
2022/11/25 14:07:10;;;;;;;5.80;5.27;;;19.40;33.70;;;;;;6173527;28;20238;-62
2022/11/25 14:10:33;;;;;;;4.00;2.83;;;18.70;34.60;;;;;;6175791;28;20322;-62
2022/11/25 14:13:54;;;;;;;3.03;2.43;;;18.30;35.30;;;;;;6174932;28;20474;-62
2022/11/25 14:17:14;;;;;;;4.10;3.07;;;17.80;36.40;;;;;;6175376;28;20934;-64
2022/11/25 14:20:37;;;;;;;6.97;3.03;;;17.30;37.40;;;;;;6175354;28;20580;-63
2022/11/25 14:24:12;;;;;;;7.00;2.90;;;16.80;39.30;;;;;;6174793;28;20532;-62
2022/11/25 14:27:18;;;;;;;2.73;2.53;;;16.10;40.10;;;;;;6175900;28;20489;-61
2022/11/25 14:30:23;;;;;;;4.60;2.20;;;15.60;41.40;;;;;;6173583;28;20473;-62
2022/11/25 14:33:33;;;;;;;5.17;3.20;;;15.00;42.80;;;;;;6174088;28;20469;-63
2022/11/25 14:36:40;;;;;;;4.73;2.80;;;14.50;44.30;;;;;;6173926;28;20477;-63
2022/11/25 14:39:49;;;;;;;4.63;3.10;;;14.00;45.50;;;;;;6176196;28;20462;-63
2022/11/25 14:42:58;;;;;;;5.03;3.17;;;13.60;46.50;;;;;;6199139;28;20425;-62
2022/11/25 14:46:14;;;;;;;7.03;4.47;;;13.30;48.00;;;;;;6199509;28;20482;-62
2022/11/25 14:49:17;;;;;;;9.23;8.00;;;12.90;49.10;;;;;;6198755;28;20477;-62
2022/11/25 14:52:42;;;;;;;4.60;2.80;;;12.60;50.40;;;;;;6198636;28;20558;-62
2022/11/25 14:55:48;;;;;;;9.00;5.20;;;12.30;51.60;;;;;;6198574;28;20474;-63
2022/11/25 14:58:54;;;;;;;3.43;3.20;;;12.10;52.60;;;;;;6198608;28;20481;-62
2022/11/25 15:01:58;;;;;;;5.13;3.00;;;11.80;54.00;;;;;;6197756;28;20476;-62
2022/11/25 15:05:08;;;;;;;6.03;3.97;;;11.60;54.80;;;;;;6194393;28;20475;-62
2022/11/25 15:08:16;;;;;;;9.40;4.70;;;11.50;55.80;;;;;;6197874;28;20476;-62
2022/11/25 15:11:22;;;;;;;9.80;5.83;;;11.30;57.20;;;;;;6197484;28;20500;-61
2022/11/25 15:14:27;;;;;;;5.67;5.03;;;11.20;58.30;;;;;;6198159;28;20473;-63
2022/11/25 15:17:36;;;;;;;12.97;6.33;;;11.10;59.50;;;;;;6198776;28;20778;-62
2022/11/25 15:20:39;;;;;;;6.30;5.17;;;11.00;61.40;;;;;;6199091;28;20484;-62
2022/11/25 15:23:42;;;;;;;10.03;3.83;;;10.90;63.20;;;;;;6197983;28;20495;-63
2022/11/25 15:26:51;;;;;;;6.07;5.47;;;10.80;64.90;;;;;;6198624;28;20476;-63
2022/11/25 15:29:56;;;;;;;5.80;4.50;;;10.70;66.70;;;;;;6199464;28;21288;-61
2022/11/25 15:33:02;;;;;;;6.50;3.60;;;10.60;68.40;;;;;;6200116;28;20811;-61
2022/11/25 15:36:06;;;;;;;6.30;5.40;;;10.50;70.40;;;;;;6200243;28;20801;-61
2022/11/25 15:39:26;;;;;;;6.97;5.53;;;10.50;72.20;;;;;;6205932;28;20476;-61
2022/11/25 15:42:29;;;;;;;7.10;5.40;;;10.30;73.80;;;;;;6201167;28;20484;-60
2022/11/25 15:45:36;;;;;;;7.87;5.70;;;10.20;75.70;;;;;;6206069;28;20806;-62
2022/11/25 15:48:45;;;;;;;5.50;4.83;;;10.10;77.20;;;;;;6205011;28;20477;-61
2022/11/25 15:51:52;;;;;;;8.53;6.60;;;10.00;78.90;;;;;;6205512;28;20532;-61
2022/11/25 15:55:01;;;;;;;11.30;5.57;;;9.90;81.60;;;;;;6205607;28;20437;-60
2022/11/25 15:58:12;;;;;;;6.50;4.57;;;9.70;83.20;;;;;;6219286;28;20473;-62
2022/11/25 16:01:21;;;;;;;8.17;6.00;;;9.60;84.70;;;;;;6218110;28;20484;-61
2022/11/25 16:04:26;;;;;;;8.90;7.50;;;9.50;86.70;;;;;;6214658;28;20473;-61
2022/11/25 16:07:29;;;;;;;8.83;6.60;;;9.40;88.50;;;;;;6210091;28;20476;-62
2022/11/25 16:10:46;;;;;;;10.07;8.00;;;9.30;90.00;;;;;;6198578;28;20477;-61
2022/11/25 16:13:50;;;;;;;11.17;8.03;;;9.30;90.70;;;;;;6180503;28;20469;-62
2022/11/25 16:16:59;;;;;;;14.67;9.27;;;9.20;91.70;;;;;;6179729;28;20469;-62
2022/11/25 16:20:04;;;;;;;15.50;8.13;;;9.10;92.50;;;;;;6179822;28;20477;-62
2022/11/25 16:23:07;;;;;;;14.33;11.03;;;9.00;93.20;;;;;;6179467;28;20489;-61
2022/11/25 16:26:17;;;;;;;15.70;11.70;;;9.00;93.90;;;;;;6183364;28;20552;-61